Russell, North Dakota
Current Conditions -  °F | °C
As of 4:58 PM on Tuesday 27 Jan 2015 (Local Time) from KMIB Reporting Station
Clear Clear  
Wind Chill: 40°   Ceiling: Unl
Heat Index: 40°   Visibility: 10mi
Dew Point: 40°   Wind: 1mph
Humidity: 99%   Direction: 150°SSE
Pressure: 29.78"   Gusts: NA
Location:  48.6879°N, 101.011°W
Report Text: KMIB 272258Z AUTO 15001KT 10SM CLR 05/05 A2978 RMK AO2 SLP107 T00460045 $
Loading
Personal Weather Stations






























Interactive Weather Map New forecast layout! Learn more

10-Day Weather Forecast

Advertisements
Track Severe Weather on mobile